This is the latest recevied weather packets stored in our database for station/object KN6CW-3. If no packets are shown the sender has not sent any weather packets the latest 10 day(s).
| Time | Temp. | Humidity | Pressure | Rain* | Wind** | Luminosity | Snow |
|---|---|---|---|---|---|---|---|
| 1777346327 | 10.56° C | 70% | 1023 hPa | 0 mm | - | 0 W/m² | - |
| 1777346027 | 11.11° C | 69% | 1023.2 hPa | 0 mm | - | 0 W/m² | - |
| 1777345727 | 11.11° C | 69% | 1023.1 hPa | 0 mm | - | 0 W/m² | - |
| 1777345427 | 11.11° C | 68% | 1023.2 hPa | 0 mm | - | 0 W/m² | - |
| 1777345195 | 11.11° C | 67% | 1023.3 hPa | 0 mm | - | 0 W/m² | - |
| 1777345126 | 11.11° C | 67% | 1023.3 hPa | 0 mm | - | 0 W/m² | - |
| 1777344894 | 12.22° C | 60% | 1023.8 hPa | 0 mm | - | 0 W/m² | - |
| 1777344883 | 12.22° C | 60% | 1023.7 hPa | 0 mm | - | 0 W/m² | - |
| 1777344826 | 11.67° C | 67% | 1023.4 hPa | 0 mm | - | 0 W/m² | - |
| 1777344526 | 11.67° C | 65% | 1023.4 hPa | 0 mm | - | 0 W/m² | - |
| 1777344225 | 11.67° C | 63% | 1023.5 hPa | 0 mm | - | 0 W/m² | - |
| 1777343925 | 11.67° C | 63% | 1023.6 hPa | 0 mm | - | 0 W/m² | - |
| 1777343625 | 11.67° C | 62% | 1023.8 hPa | 0 mm | - | 0 W/m² | - |
| 1777343324 | 12.22° C | 62% | 1023.7 hPa | 0 mm | - | 0 W/m² | - |
| 1777343024 | 12.22° C | 60% | 1023.9 hPa | 0 mm | - | 0 W/m² | - |
| 1777342724 | 12.22° C | 60% | 1023.8 hPa | 0 mm | - | 0 W/m² | - |
| 1777342424 | 12.22° C | 60% | 1023.7 hPa | 0 mm | - | 0 W/m² | - |
| 1777342123 | 12.22° C | 60% | 1023.8 hPa | 0 mm | - | 0 W/m² | - |
| 1777341823 | 12.22° C | 60% | 1023.9 hPa | 0 mm | - | 0 W/m² | - |
| 1777341596 | 12.22° C | 60% | 1023.8 hPa | 0 mm | - | 0 W/m² | - |
| 1777341523 | 12.22° C | 60% | 1023.8 hPa | 0 mm | - | 0 W/m² | - |
| 1777341295 | 12.22° C | 60% | 1023.9 hPa | 0 mm | - | 0 W/m² | - |
| 1777341286 | 12.22° C | 60% | 1024 hPa | 0 mm | - | 0 W/m² | - |
| 1777341222 | 12.22° C | 59% | 1023.8 hPa | 0 mm | - | 0 W/m² | - |
| 1777340922 | 12.22° C | 60% | 1023.9 hPa | 0 mm | - | 0 W/m² | - |
* Rain latest hour (hover to see other rain measurements)
** Current wind speed in m/s (hover to see current wind gust speed)